sensor_id;sensor_type;location;lat;lon;timestamp;P1;durP1;ratioP1;P2;durP2;ratioP2
31210;SDS011;17836;50.948;3.946;2023-07-29T00:00:36;1.03;;;0.93;;
31210;SDS011;17836;50.948;3.946;2023-07-29T00:03:01;2.17;;;1.10;;
31210;SDS011;17836;50.948;3.946;2023-07-29T00:05:26;2.20;;;1.20;;
31210;SDS011;17836;50.948;3.946;2023-07-29T00:07:52;2.23;;;1.30;;
31210;SDS011;17836;50.948;3.946;2023-07-29T00:10:17;1.40;;;1.30;;
31210;SDS011;17836;50.948;3.946;2023-07-29T00:12:45;1.30;;;1.20;;
31210;SDS011;17836;50.948;3.946;2023-07-29T00:15:10;4.03;;;1.57;;
31210;SDS011;17836;50.948;3.946;2023-07-29T00:17:36;1.40;;;1.30;;
31210;SDS011;17836;50.948;3.946;2023-07-29T00:20:01;2.20;;;1.27;;
31210;SDS011;17836;50.948;3.946;2023-07-29T00:22:27;1.88;;;1.40;;
31210;SDS011;17836;50.948;3.946;2023-07-29T00:24:53;1.53;;;1.00;;
31210;SDS011;17836;50.948;3.946;2023-07-29T00:27:22;3.05;;;1.50;;
31210;SDS011;17836;50.948;3.946;2023-07-29T00:29:50;1.58;;;1.23;;
31210;SDS011;17836;50.948;3.946;2023-07-29T00:32:15;1.77;;;1.25;;
31210;SDS011;17836;50.948;3.946;2023-07-29T00:34:41;1.77;;;1.27;;
31210;SDS011;17836;50.948;3.946;2023-07-29T00:37:06;4.80;;;1.60;;
31210;SDS011;17836;50.948;3.946;2023-07-29T00:39:34;2.50;;;1.80;;
31210;SDS011;17836;50.948;3.946;2023-07-29T00:41:59;9.87;;;1.63;;
31210;SDS011;17836;50.948;3.946;2023-07-29T00:44:24;1.90;;;1.67;;
31210;SDS011;17836;50.948;3.946;2023-07-29T00:46:54;1.85;;;1.65;;
31210;SDS011;17836;50.948;3.946;2023-07-29T00:49:20;3.05;;;1.73;;
31210;SDS011;17836;50.948;3.946;2023-07-29T00:51:46;2.63;;;1.90;;
31210;SDS011;17836;50.948;3.946;2023-07-29T00:54:13;3.45;;;1.98;;
31210;SDS011;17836;50.948;3.946;2023-07-29T00:56:39;4.33;;;2.30;;
31210;SDS011;17836;50.948;3.946;2023-07-29T00:59:04;2.55;;;1.75;;
31210;SDS011;17836;50.948;3.946;2023-07-29T01:03:59;4.28;;;1.98;;
31210;SDS011;17836;50.948;3.946;2023-07-29T01:13:59;4.57;;;1.95;;
31210;SDS011;17836;50.948;3.946;2023-07-29T01:18:53;2.27;;;1.87;;
31210;SDS011;17836;50.948;3.946;2023-07-29T01:21:20;3.05;;;1.83;;
31210;SDS011;17836;50.948;3.946;2023-07-29T01:23:52;2.83;;;1.92;;
31210;SDS011;17836;50.948;3.946;2023-07-29T01:26:17;2.53;;;1.58;;
31210;SDS011;17836;50.948;3.946;2023-07-29T01:28:42;4.60;;;1.77;;
31210;SDS011;17836;50.948;3.946;2023-07-29T01:33:39;1.92;;;1.75;;
31210;SDS011;17836;50.948;3.946;2023-07-29T01:36:11;3.63;;;1.73;;
31210;SDS011;17836;50.948;3.946;2023-07-29T01:38:38;2.33;;;1.50;;
31210;SDS011;17836;50.948;3.946;2023-07-29T01:41:04;2.42;;;1.52;;
31210;SDS011;17836;50.948;3.946;2023-07-29T01:43:33;1.63;;;1.35;;
31210;SDS011;17836;50.948;3.946;2023-07-29T01:45:59;2.35;;;1.85;;
31210;SDS011;17836;50.948;3.946;2023-07-29T01:48:25;2.95;;;1.80;;
31210;SDS011;17836;50.948;3.946;2023-07-29T01:50:51;2.40;;;1.60;;
31210;SDS011;17836;50.948;3.946;2023-07-29T01:53:16;3.53;;;2.13;;
31210;SDS011;17836;50.948;3.946;2023-07-29T01:55:42;2.07;;;1.50;;
31210;SDS011;17836;50.948;3.946;2023-07-29T01:58:09;1.92;;;1.52;;
31210;SDS011;17836;50.948;3.946;2023-07-29T02:00:34;3.37;;;1.63;;
31210;SDS011;17836;50.948;3.946;2023-07-29T02:03:00;4.57;;;1.53;;
31210;SDS011;17836;50.948;3.946;2023-07-29T02:05:25;1.93;;;1.23;;
31210;SDS011;17836;50.948;3.946;2023-07-29T02:07:50;3.20;;;1.40;;
31210;SDS011;17836;50.948;3.946;2023-07-29T02:10:15;2.53;;;1.33;;
31210;SDS011;17836;50.948;3.946;2023-07-29T02:12:43;3.23;;;1.20;;
31210;SDS011;17836;50.948;3.946;2023-07-29T02:15:08;3.95;;;1.90;;
31210;SDS011;17836;50.948;3.946;2023-07-29T02:17:34;1.95;;;1.50;;
31210;SDS011;17836;50.948;3.946;2023-07-29T02:20:00;4.22;;;2.15;;
31210;SDS011;17836;50.948;3.946;2023-07-29T02:22:25;3.03;;;2.10;;
31210;SDS011;17836;50.948;3.946;2023-07-29T02:24:50;2.30;;;1.50;;
31210;SDS011;17836;50.948;3.946;2023-07-29T02:27:15;2.03;;;1.63;;
31210;SDS011;17836;50.948;3.946;2023-07-29T02:29:41;2.60;;;1.70;;
31210;SDS011;17836;50.948;3.946;2023-07-29T02:32:06;5.13;;;1.52;;
31210;SDS011;17836;50.948;3.946;2023-07-29T02:34:31;4.87;;;1.90;;
31210;SDS011;17836;50.948;3.946;2023-07-29T02:36:57;2.30;;;1.65;;
31210;SDS011;17836;50.948;3.946;2023-07-29T02:39:24;2.20;;;1.65;;
31210;SDS011;17836;50.948;3.946;2023-07-29T02:41:49;2.75;;;1.92;;
31210;SDS011;17836;50.948;3.946;2023-07-29T02:44:15;2.87;;;1.67;;
31210;SDS011;17836;50.948;3.946;2023-07-29T02:46:40;2.95;;;1.83;;
31210;SDS011;17836;50.948;3.946;2023-07-29T02:49:06;5.13;;;1.80;;
31210;SDS011;17836;50.948;3.946;2023-07-29T02:51:31;2.90;;;1.70;;
31210;SDS011;17836;50.948;3.946;2023-07-29T02:53:56;7.90;;;1.60;;
31210;SDS011;17836;50.948;3.946;2023-07-29T02:56:22;2.03;;;1.30;;
31210;SDS011;17836;50.948;3.946;2023-07-29T02:58:47;3.35;;;1.90;;
31210;SDS011;17836;50.948;3.946;2023-07-29T03:01:12;1.50;;;1.40;;
31210;SDS011;17836;50.948;3.946;2023-07-29T03:03:38;2.40;;;1.40;;
31210;SDS011;17836;50.948;3.946;2023-07-29T03:06:04;1.48;;;1.20;;
31210;SDS011;17836;50.948;3.946;2023-07-29T03:08:30;1.60;;;1.50;;
31210;SDS011;17836;50.948;3.946;2023-07-29T03:10:56;1.63;;;1.38;;
31210;SDS011;17836;50.948;3.946;2023-07-29T03:13:21;1.65;;;1.40;;
31210;SDS011;17836;50.948;3.946;2023-07-29T03:15:49;2.15;;;1.20;;
31210;SDS011;17836;50.948;3.946;2023-07-29T03:18:14;1.90;;;1.30;;
31210;SDS011;17836;50.948;3.946;2023-07-29T03:20:40;1.58;;;1.38;;
31210;SDS011;17836;50.948;3.946;2023-07-29T03:23:05;2.00;;;1.77;;
31210;SDS011;17836;50.948;3.946;2023-07-29T03:25:30;2.70;;;1.58;;
31210;SDS011;17836;50.948;3.946;2023-07-29T03:27:58;1.88;;;1.48;;
31210;SDS011;17836;50.948;3.946;2023-07-29T03:30:23;3.28;;;1.58;;
31210;SDS011;17836;50.948;3.946;2023-07-29T03:32:49;1.95;;;1.38;;
31210;SDS011;17836;50.948;3.946;2023-07-29T03:35:14;1.57;;;1.37;;
31210;SDS011;17836;50.948;3.946;2023-07-29T03:37:39;1.58;;;1.30;;
31210;SDS011;17836;50.948;3.946;2023-07-29T03:40:06;2.42;;;1.45;;
31210;SDS011;17836;50.948;3.946;2023-07-29T03:42:31;1.80;;;1.33;;
31210;SDS011;17836;50.948;3.946;2023-07-29T03:44:56;1.60;;;1.10;;
31210;SDS011;17836;50.948;3.946;2023-07-29T03:47:22;2.07;;;1.10;;
31210;SDS011;17836;50.948;3.946;2023-07-29T03:49:47;1.47;;;1.37;;
31210;SDS011;17836;50.948;3.946;2023-07-29T03:52:12;1.60;;;1.20;;
31210;SDS011;17836;50.948;3.946;2023-07-29T03:54:37;3.10;;;1.57;;
31210;SDS011;17836;50.948;3.946;2023-07-29T03:57:03;5.30;;;2.27;;
31210;SDS011;17836;50.948;3.946;2023-07-29T03:59:31;1.60;;;1.48;;
31210;SDS011;17836;50.948;3.946;2023-07-29T04:01:56;2.70;;;1.42;;
31210;SDS011;17836;50.948;3.946;2023-07-29T04:04:21;4.13;;;1.67;;
31210;SDS011;17836;50.948;3.946;2023-07-29T04:06:46;1.20;;;1.00;;
31210;SDS011;17836;50.948;3.946;2023-07-29T04:09:12;4.80;;;1.52;;
31210;SDS011;17836;50.948;3.946;2023-07-29T04:11:37;1.77;;;1.27;;
31210;SDS011;17836;50.948;3.946;2023-07-29T04:14:02;1.50;;;1.40;;
31210;SDS011;17836;50.948;3.946;2023-07-29T04:16:28;2.77;;;1.33;;
31210;SDS011;17836;50.948;3.946;2023-07-29T04:18:56;1.67;;;1.23;;
31210;SDS011;17836;50.948;3.946;2023-07-29T04:21:21;3.55;;;1.40;;
31210;SDS011;17836;50.948;3.946;2023-07-29T04:23:47;3.58;;;1.58;;
31210;SDS011;17836;50.948;3.946;2023-07-29T04:26:12;2.65;;;1.00;;
31210;SDS011;17836;50.948;3.946;2023-07-29T04:28:37;1.53;;;1.43;;
31210;SDS011;17836;50.948;3.946;2023-07-29T04:31:02;3.50;;;1.37;;
31210;SDS011;17836;50.948;3.946;2023-07-29T04:33:29;3.00;;;1.50;;
31210;SDS011;17836;50.948;3.946;2023-07-29T04:35:54;3.00;;;1.30;;
31210;SDS011;17836;50.948;3.946;2023-07-29T04:38:20;6.10;;;1.55;;
31210;SDS011;17836;50.948;3.946;2023-07-29T04:40:45;2.43;;;1.50;;
31210;SDS011;17836;50.948;3.946;2023-07-29T04:43:10;1.83;;;1.10;;
31210;SDS011;17836;50.948;3.946;2023-07-29T04:45:35;2.70;;;1.37;;
31210;SDS011;17836;50.948;3.946;2023-07-29T04:48:01;2.27;;;1.30;;
31210;SDS011;17836;50.948;3.946;2023-07-29T04:50:26;6.03;;;1.30;;
31210;SDS011;17836;50.948;3.946;2023-07-29T04:52:51;2.27;;;1.57;;
31210;SDS011;17836;50.948;3.946;2023-07-29T04:55:18;6.70;;;1.50;;
31210;SDS011;17836;50.948;3.946;2023-07-29T04:57:43;2.37;;;1.50;;
31210;SDS011;17836;50.948;3.946;2023-07-29T05:00:08;2.83;;;1.57;;
31210;SDS011;17836;50.948;3.946;2023-07-29T05:02:34;2.97;;;1.50;;
31210;SDS011;17836;50.948;3.946;2023-07-29T05:05:00;3.38;;;1.70;;
31210;SDS011;17836;50.948;3.946;2023-07-29T05:07:25;3.33;;;1.70;;
31210;SDS011;17836;50.948;3.946;2023-07-29T05:09:53;2.30;;;1.55;;
31210;SDS011;17836;50.948;3.946;2023-07-29T05:12:18;2.80;;;1.30;;
31210;SDS011;17836;50.948;3.946;2023-07-29T05:14:43;2.13;;;1.40;;
31210;SDS011;17836;50.948;3.946;2023-07-29T05:17:09;2.72;;;1.65;;
31210;SDS011;17836;50.948;3.946;2023-07-29T05:19:34;4.40;;;1.65;;
31210;SDS011;17836;50.948;3.946;2023-07-29T05:21:59;1.83;;;1.47;;
31210;SDS011;17836;50.948;3.946;2023-07-29T05:24:27;1.75;;;1.30;;
31210;SDS011;17836;50.948;3.946;2023-07-29T05:26:55;2.08;;;1.83;;
31210;SDS011;17836;50.948;3.946;2023-07-29T05:29:20;3.42;;;1.77;;
31210;SDS011;17836;50.948;3.946;2023-07-29T05:31:45;3.17;;;1.40;;
31210;SDS011;17836;50.948;3.946;2023-07-29T05:34:13;2.40;;;1.33;;
31210;SDS011;17836;50.948;3.946;2023-07-29T05:36:39;4.13;;;1.75;;
31210;SDS011;17836;50.948;3.946;2023-07-29T05:39:04;2.28;;;1.23;;
31210;SDS011;17836;50.948;3.946;2023-07-29T05:41:29;3.03;;;1.20;;
31210;SDS011;17836;50.948;3.946;2023-07-29T05:43:56;2.43;;;1.50;;
31210;SDS011;17836;50.948;3.946;2023-07-29T05:46:24;2.83;;;1.30;;
31210;SDS011;17836;50.948;3.946;2023-07-29T05:48:50;1.40;;;1.30;;
31210;SDS011;17836;50.948;3.946;2023-07-29T05:51:15;1.50;;;1.13;;
31210;SDS011;17836;50.948;3.946;2023-07-29T05:53:40;2.40;;;1.23;;
31210;SDS011;17836;50.948;3.946;2023-07-29T05:56:05;1.93;;;1.30;;
31210;SDS011;17836;50.948;3.946;2023-07-29T05:58:31;1.80;;;1.00;;
31210;SDS011;17836;50.948;3.946;2023-07-29T06:00:56;3.20;;;1.13;;
31210;SDS011;17836;50.948;3.946;2023-07-29T06:03:22;1.10;;;1.00;;
31210;SDS011;17836;50.948;3.946;2023-07-29T06:05:48;1.43;;;0.93;;
31210;SDS011;17836;50.948;3.946;2023-07-29T06:08:13;2.50;;;1.25;;
31210;SDS011;17836;50.948;3.946;2023-07-29T06:10:38;2.23;;;0.93;;
31210;SDS011;17836;50.948;3.946;2023-07-29T06:13:06;1.37;;;0.90;;
31210;SDS011;17836;50.948;3.946;2023-07-29T06:15:32;1.13;;;0.90;;
31210;SDS011;17836;50.948;3.946;2023-07-29T06:53:42;2.35;;;0.95;;
31210;SDS011;17836;50.948;3.946;2023-07-29T06:56:08;1.17;;;0.80;;
31210;SDS011;17836;50.948;3.946;2023-07-29T06:58:33;1.00;;;0.90;;
31210;SDS011;17836;50.948;3.946;2023-07-29T07:00:59;1.45;;;0.95;;
31210;SDS011;17836;50.948;3.946;2023-07-29T07:03:24;2.67;;;1.02;;
31210;SDS011;17836;50.948;3.946;2023-07-29T07:05:49;2.40;;;1.17;;
31210;SDS011;17836;50.948;3.946;2023-07-29T07:08:15;2.55;;;0.93;;
31210;SDS011;17836;50.948;3.946;2023-07-29T07:10:42;1.40;;;0.68;;
31210;SDS011;17836;50.948;3.946;2023-07-29T07:13:08;2.20;;;1.23;;
31210;SDS011;17836;50.948;3.946;2023-07-29T07:15:33;1.43;;;0.80;;
31210;SDS011;17836;50.948;3.946;2023-07-29T07:17:58;1.73;;;0.80;;
31210;SDS011;17836;50.948;3.946;2023-07-29T07:20:23;1.07;;;0.67;;
31210;SDS011;17836;50.948;3.946;2023-07-29T07:22:49;3.80;;;1.00;;
31210;SDS011;17836;50.948;3.946;2023-07-29T07:25:14;2.13;;;0.80;;
31210;SDS011;17836;50.948;3.946;2023-07-29T07:27:39;0.87;;;0.60;;
31210;SDS011;17836;50.948;3.946;2023-07-29T07:30:05;0.73;;;0.70;;
31210;SDS011;17836;50.948;3.946;2023-07-29T07:32:30;1.73;;;0.65;;
31210;SDS011;17836;50.948;3.946;2023-07-29T07:34:55;1.48;;;0.80;;
31210;SDS011;17836;50.948;3.946;2023-07-29T07:37:21;1.40;;;0.67;;
31210;SDS011;17836;50.948;3.946;2023-07-29T07:39:48;0.70;;;0.60;;
31210;SDS011;17836;50.948;3.946;2023-07-29T07:42:14;3.03;;;0.90;;
31210;SDS011;17836;50.948;3.946;2023-07-29T07:44:39;2.20;;;0.60;;
31210;SDS011;17836;50.948;3.946;2023-07-29T07:47:04;1.07;;;0.50;;
31210;SDS011;17836;50.948;3.946;2023-07-29T07:49:30;0.93;;;0.50;;
31210;SDS011;17836;50.948;3.946;2023-07-29T07:51:55;4.17;;;0.80;;
31210;SDS011;17836;50.948;3.946;2023-07-29T07:54:20;0.90;;;0.60;;
31210;SDS011;17836;50.948;3.946;2023-07-29T07:56:45;0.73;;;0.50;;
31210;SDS011;17836;50.948;3.946;2023-07-29T07:59:11;0.90;;;0.70;;
31210;SDS011;17836;50.948;3.946;2023-07-29T08:01:39;1.93;;;0.53;;
31210;SDS011;17836;50.948;3.946;2023-07-29T08:04:04;1.38;;;0.70;;
31210;SDS011;17836;50.948;3.946;2023-07-29T08:06:32;6.78;;;1.58;;
31210;SDS011;17836;50.948;3.946;2023-07-29T08:08:58;0.80;;;0.70;;
31210;SDS011;17836;50.948;3.946;2023-07-29T08:11:23;1.67;;;0.50;;
31210;SDS011;17836;50.948;3.946;2023-07-29T08:13:48;2.03;;;0.73;;
31210;SDS011;17836;50.948;3.946;2023-07-29T08:16:14;1.83;;;0.60;;
31210;SDS011;17836;50.948;3.946;2023-07-29T08:18:39;0.95;;;0.60;;
31210;SDS011;17836;50.948;3.946;2023-07-29T08:21:04;4.40;;;0.67;;
31210;SDS011;17836;50.948;3.946;2023-07-29T08:23:30;0.77;;;0.45;;
31210;SDS011;17836;50.948;3.946;2023-07-29T08:25:57;0.77;;;0.68;;
31210;SDS011;17836;50.948;3.946;2023-07-29T08:28:27;0.80;;;0.70;;
31210;SDS011;17836;50.948;3.946;2023-07-29T08:30:52;1.15;;;0.57;;
31210;SDS011;17836;50.948;3.946;2023-07-29T08:33:17;1.07;;;0.80;;
31210;SDS011;17836;50.948;3.946;2023-07-29T08:35:43;1.27;;;0.67;;
31210;SDS011;17836;50.948;3.946;2023-07-29T08:38:08;0.80;;;0.80;;
31210;SDS011;17836;50.948;3.946;2023-07-29T08:40:34;1.27;;;0.83;;
31210;SDS011;17836;50.948;3.946;2023-07-29T08:43:01;0.93;;;0.60;;
31210;SDS011;17836;50.948;3.946;2023-07-29T08:45:27;1.60;;;0.95;;
31210;SDS011;17836;50.948;3.946;2023-07-29T08:47:54;2.15;;;1.33;;
31210;SDS011;17836;50.948;3.946;2023-07-29T08:50:22;2.35;;;0.98;;
31210;SDS011;17836;50.948;3.946;2023-07-29T08:52:49;0.93;;;0.80;;
31210;SDS011;17836;50.948;3.946;2023-07-29T08:55:16;1.75;;;0.80;;
31210;SDS011;17836;50.948;3.946;2023-07-29T08:57:41;1.17;;;0.80;;
31210;SDS011;17836;50.948;3.946;2023-07-29T09:00:07;0.87;;;0.87;;
31210;SDS011;17836;50.948;3.946;2023-07-29T09:02:32;0.98;;;0.75;;
31210;SDS011;17836;50.948;3.946;2023-07-29T09:04:58;1.07;;;0.70;;
31210;SDS011;17836;50.948;3.946;2023-07-29T09:07:23;2.30;;;0.90;;
31210;SDS011;17836;50.948;3.946;2023-07-29T09:09:50;1.85;;;0.90;;
31210;SDS011;17836;50.948;3.946;2023-07-29T09:12:16;0.73;;;0.73;;
31210;SDS011;17836;50.948;3.946;2023-07-29T09:14:41;1.00;;;0.90;;
31210;SDS011;17836;50.948;3.946;2023-07-29T09:17:07;1.30;;;0.90;;
31210;SDS011;17836;50.948;3.946;2023-07-29T09:19:33;1.45;;;0.90;;
31210;SDS011;17836;50.948;3.946;2023-07-29T09:21:58;1.27;;;0.98;;
31210;SDS011;17836;50.948;3.946;2023-07-29T09:24:23;2.00;;;1.30;;
31210;SDS011;17836;50.948;3.946;2023-07-29T09:26:50;1.83;;;1.20;;
31210;SDS011;17836;50.948;3.946;2023-07-29T09:29:15;2.55;;;1.20;;
31210;SDS011;17836;50.948;3.946;2023-07-29T09:31:43;1.70;;;1.00;;
31210;SDS011;17836;50.948;3.946;2023-07-29T09:34:08;1.25;;;0.90;;
31210;SDS011;17836;50.948;3.946;2023-07-29T09:36:33;1.70;;;1.00;;
31210;SDS011;17836;50.948;3.946;2023-07-29T09:38:59;2.22;;;1.33;;
31210;SDS011;17836;50.948;3.946;2023-07-29T09:41:25;1.17;;;0.90;;
31210;SDS011;17836;50.948;3.946;2023-07-29T09:43:57;3.20;;;0.95;;
31210;SDS011;17836;50.948;3.946;2023-07-29T09:46:23;0.90;;;0.82;;
31210;SDS011;17836;50.948;3.946;2023-07-29T09:48:49;2.67;;;1.33;;
31210;SDS011;17836;50.948;3.946;2023-07-29T09:51:17;2.10;;;1.02;;
31210;SDS011;17836;50.948;3.946;2023-07-29T09:53:44;1.27;;;0.80;;
31210;SDS011;17836;50.948;3.946;2023-07-29T09:56:09;2.55;;;0.60;;
31210;SDS011;17836;50.948;3.946;2023-07-29T09:58:39;3.90;;;1.13;;
31210;SDS011;17836;50.948;3.946;2023-07-29T10:01:05;2.08;;;0.80;;
31210;SDS011;17836;50.948;3.946;2023-07-29T10:03:31;2.40;;;0.90;;
31210;SDS011;17836;50.948;3.946;2023-07-29T10:05:59;0.60;;;0.60;;
31210;SDS011;17836;50.948;3.946;2023-07-29T10:08:25;1.17;;;1.00;;
31210;SDS011;17836;50.948;3.946;2023-07-29T10:10:52;1.63;;;1.30;;
31210;SDS011;17836;50.948;3.946;2023-07-29T10:13:21;1.00;;;0.90;;
31210;SDS011;17836;50.948;3.946;2023-07-29T10:15:49;1.27;;;0.80;;
31210;SDS011;17836;50.948;3.946;2023-07-29T10:18:15;2.22;;;1.00;;
31210;SDS011;17836;50.948;3.946;2023-07-29T10:20:43;1.38;;;1.27;;
31210;SDS011;17836;50.948;3.946;2023-07-29T10:23:08;4.22;;;0.85;;
31210;SDS011;17836;50.948;3.946;2023-07-29T10:25:37;1.90;;;1.00;;
31210;SDS011;17836;50.948;3.946;2023-07-29T10:28:07;1.02;;;0.80;;
31210;SDS011;17836;50.948;3.946;2023-07-29T10:30:33;0.98;;;0.85;;
31210;SDS011;17836;50.948;3.946;2023-07-29T10:33:02;2.92;;;1.10;;
31210;SDS011;17836;50.948;3.946;2023-07-29T10:35:27;1.95;;;1.15;;
31210;SDS011;17836;50.948;3.946;2023-07-29T10:37:53;2.13;;;0.90;;
31210;SDS011;17836;50.948;3.946;2023-07-29T10:40:18;0.88;;;0.70;;
31210;SDS011;17836;50.948;3.946;2023-07-29T10:45:48;1.25;;;0.70;;
31210;SDS011;17836;50.948;3.946;2023-07-29T10:48:39;1.17;;;0.52;;
31210;SDS011;17836;50.948;3.946;2023-07-29T10:53:48;1.40;;;0.60;;
31210;SDS011;17836;50.948;3.946;2023-07-29T10:56:24;0.63;;;0.50;;
31210;SDS011;17836;50.948;3.946;2023-07-29T10:58:49;1.27;;;0.63;;
31210;SDS011;17836;50.948;3.946;2023-07-29T11:01:27;0.70;;;0.70;;
31210;SDS011;17836;50.948;3.946;2023-07-29T11:07:01;1.95;;;1.00;;
31210;SDS011;17836;50.948;3.946;2023-07-29T11:12:52;0.70;;;0.70;;
31210;SDS011;17836;50.948;3.946;2023-07-29T11:14:51;0.57;;;0.50;;
31210;SDS011;17836;50.948;3.946;2023-07-29T11:17:17;1.80;;;0.80;;
31210;SDS011;17836;50.948;3.946;2023-07-29T11:19:42;0.90;;;0.70;;
31210;SDS011;17836;50.948;3.946;2023-07-29T11:22:09;1.67;;;0.60;;
31210;SDS011;17836;50.948;3.946;2023-07-29T11:24:34;0.65;;;0.65;;
31210;SDS011;17836;50.948;3.946;2023-07-29T11:26:59;0.60;;;0.60;;
31210;SDS011;17836;50.948;3.946;2023-07-29T11:29:25;0.60;;;0.60;;
31210;SDS011;17836;50.948;3.946;2023-07-29T11:31:52;1.57;;;0.50;;
31210;SDS011;17836;50.948;3.946;2023-07-29T11:34:18;0.57;;;0.50;;
31210;SDS011;17836;50.948;3.946;2023-07-29T11:36:55;2.88;;;0.93;;
31210;SDS011;17836;50.948;3.946;2023-07-29T11:39:23;1.90;;;0.65;;
31210;SDS011;17836;50.948;3.946;2023-07-29T11:41:48;1.37;;;0.60;;
31210;SDS011;17836;50.948;3.946;2023-07-29T11:44:16;1.10;;;0.60;;
31210;SDS011;17836;50.948;3.946;2023-07-29T11:46:42;1.40;;;0.60;;
31210;SDS011;17836;50.948;3.946;2023-07-29T11:49:07;2.97;;;0.65;;
31210;SDS011;17836;50.948;3.946;2023-07-29T11:51:33;0.80;;;0.80;;
31210;SDS011;17836;50.948;3.946;2023-07-29T11:54:00;0.57;;;0.57;;
31210;SDS011;17836;50.948;3.946;2023-07-29T11:56:26;1.15;;;0.82;;
31210;SDS011;17836;50.948;3.946;2023-07-29T11:58:51;0.90;;;0.80;;
31210;SDS011;17836;50.948;3.946;2023-07-29T12:01:19;1.00;;;0.90;;
31210;SDS011;17836;50.948;3.946;2023-07-29T12:03:44;1.10;;;0.80;;
31210;SDS011;17836;50.948;3.946;2023-07-29T12:06:10;0.70;;;0.70;;
31210;SDS011;17836;50.948;3.946;2023-07-29T12:08:35;0.70;;;0.70;;
31210;SDS011;17836;50.948;3.946;2023-07-29T12:11:00;1.92;;;0.90;;
31210;SDS011;17836;50.948;3.946;2023-07-29T12:13:26;0.93;;;0.60;;
31210;SDS011;17836;50.948;3.946;2023-07-29T12:16:00;2.28;;;0.95;;
31210;SDS011;17836;50.948;3.946;2023-07-29T12:18:29;0.70;;;0.70;;
31210;SDS011;17836;50.948;3.946;2023-07-29T12:20:55;0.65;;;0.50;;
31210;SDS011;17836;50.948;3.946;2023-07-29T12:23:23;4.68;;;1.02;;
31210;SDS011;17836;50.948;3.946;2023-07-29T12:25:49;1.15;;;0.80;;
31210;SDS011;17836;50.948;3.946;2023-07-29T12:28:14;2.87;;;0.97;;
31210;SDS011;17836;50.948;3.946;2023-07-29T12:30:42;1.20;;;0.75;;
31210;SDS011;17836;50.948;3.946;2023-07-29T12:33:08;1.40;;;0.80;;
31210;SDS011;17836;50.948;3.946;2023-07-29T12:35:35;1.17;;;0.50;;
31210;SDS011;17836;50.948;3.946;2023-07-29T12:38:00;0.88;;;0.60;;
31210;SDS011;17836;50.948;3.946;2023-07-29T12:40:25;1.00;;;0.90;;
31210;SDS011;17836;50.948;3.946;2023-07-29T12:42:51;0.77;;;0.60;;
31210;SDS011;17836;50.948;3.946;2023-07-29T12:45:17;0.90;;;0.70;;
31210;SDS011;17836;50.948;3.946;2023-07-29T12:47:43;0.77;;;0.75;;
31210;SDS011;17836;50.948;3.946;2023-07-29T12:50:08;1.92;;;0.70;;
31210;SDS011;17836;50.948;3.946;2023-07-29T12:52:33;0.60;;;0.60;;
31210;SDS011;17836;50.948;3.946;2023-07-29T12:54:59;0.80;;;0.80;;
31210;SDS011;17836;50.948;3.946;2023-07-29T12:57:24;1.17;;;1.00;;
31210;SDS011;17836;50.948;3.946;2023-07-29T12:59:49;0.50;;;0.50;;
31210;SDS011;17836;50.948;3.946;2023-07-29T13:02:14;1.00;;;0.73;;
31210;SDS011;17836;50.948;3.946;2023-07-29T13:04:40;1.60;;;0.80;;
31210;SDS011;17836;50.948;3.946;2023-07-29T13:07:05;0.93;;;0.60;;
31210;SDS011;17836;50.948;3.946;2023-07-29T13:09:31;0.65;;;0.60;;
31210;SDS011;17836;50.948;3.946;2023-07-29T13:11:59;0.90;;;0.70;;
31210;SDS011;17836;50.948;3.946;2023-07-29T13:14:25;1.27;;;0.40;;
31210;SDS011;17836;50.948;3.946;2023-07-29T13:16:51;0.52;;;0.50;;
31210;SDS011;17836;50.948;3.946;2023-07-29T13:19:18;0.57;;;0.57;;
31210;SDS011;17836;50.948;3.946;2023-07-29T13:21:43;0.77;;;0.52;;
31210;SDS011;17836;50.948;3.946;2023-07-29T13:24:08;1.47;;;0.60;;
31210;SDS011;17836;50.948;3.946;2023-07-29T13:26:33;0.53;;;0.50;;
31210;SDS011;17836;50.948;3.946;2023-07-29T13:28:59;1.07;;;0.70;;
31210;SDS011;17836;50.948;3.946;2023-07-29T13:31:24;1.70;;;0.70;;
31210;SDS011;17836;50.948;3.946;2023-07-29T13:33:50;0.60;;;0.60;;
31210;SDS011;17836;50.948;3.946;2023-07-29T13:36:15;0.90;;;0.63;;
31210;SDS011;17836;50.948;3.946;2023-07-29T13:38:41;0.40;;;0.40;;
31210;SDS011;17836;50.948;3.946;2023-07-29T13:41:09;1.55;;;0.63;;
31210;SDS011;17836;50.948;3.946;2023-07-29T13:43:36;0.73;;;0.70;;
31210;SDS011;17836;50.948;3.946;2023-07-29T13:46:01;0.60;;;0.60;;
31210;SDS011;17836;50.948;3.946;2023-07-29T13:48:27;2.30;;;0.90;;
31210;SDS011;17836;50.948;3.946;2023-07-29T13:50:52;0.67;;;0.67;;
31210;SDS011;17836;50.948;3.946;2023-07-29T13:53:17;1.53;;;0.80;;
31210;SDS011;17836;50.948;3.946;2023-07-29T13:55:43;0.82;;;0.70;;
31210;SDS011;17836;50.948;3.946;2023-07-29T13:58:08;2.80;;;1.23;;
31210;SDS011;17836;50.948;3.946;2023-07-29T14:00:33;0.75;;;0.75;;
31210;SDS011;17836;50.948;3.946;2023-07-29T14:02:58;2.63;;;1.30;;
31210;SDS011;17836;50.948;3.946;2023-07-29T14:05:26;1.45;;;0.95;;
31210;SDS011;17836;50.948;3.946;2023-07-29T14:07:51;1.77;;;0.90;;
31210;SDS011;17836;50.948;3.946;2023-07-29T14:10:17;1.60;;;0.93;;
31210;SDS011;17836;50.948;3.946;2023-07-29T14:12:42;1.50;;;1.00;;
31210;SDS011;17836;50.948;3.946;2023-07-29T14:15:07;1.37;;;0.93;;
31210;SDS011;17836;50.948;3.946;2023-07-29T14:17:33;0.80;;;0.80;;
31210;SDS011;17836;50.948;3.946;2023-07-29T14:20:01;0.80;;;0.73;;
31210;SDS011;17836;50.948;3.946;2023-07-29T14:22:26;1.10;;;1.00;;
31210;SDS011;17836;50.948;3.946;2023-07-29T14:24:51;1.87;;;0.80;;
31210;SDS011;17836;50.948;3.946;2023-07-29T14:27:16;1.17;;;0.80;;
31210;SDS011;17836;50.948;3.946;2023-07-29T14:29:42;1.03;;;0.80;;
31210;SDS011;17836;50.948;3.946;2023-07-29T14:32:07;1.13;;;1.00;;
31210;SDS011;17836;50.948;3.946;2023-07-29T14:34:32;1.83;;;0.90;;
31210;SDS011;17836;50.948;3.946;2023-07-29T14:36:58;2.08;;;0.70;;
31210;SDS011;17836;50.948;3.946;2023-07-29T14:39:23;1.30;;;1.20;;
31210;SDS011;17836;50.948;3.946;2023-07-29T14:41:48;0.73;;;0.63;;
31210;SDS011;17836;50.948;3.946;2023-07-29T14:44:13;1.50;;;1.00;;
31210;SDS011;17836;50.948;3.946;2023-07-29T14:46:39;1.33;;;1.00;;
31210;SDS011;17836;50.948;3.946;2023-07-29T14:49:04;3.93;;;1.27;;
31210;SDS011;17836;50.948;3.946;2023-07-29T14:51:29;1.17;;;1.07;;
31210;SDS011;17836;50.948;3.946;2023-07-29T14:53:55;1.33;;;1.10;;
31210;SDS011;17836;50.948;3.946;2023-07-29T14:56:20;0.82;;;0.82;;
31210;SDS011;17836;50.948;3.946;2023-07-29T14:58:45;0.60;;;0.60;;
31210;SDS011;17836;50.948;3.946;2023-07-29T15:01:11;1.87;;;0.80;;
31210;SDS011;17836;50.948;3.946;2023-07-29T15:03:36;1.03;;;0.50;;
31210;SDS011;17836;50.948;3.946;2023-07-29T15:06:02;0.98;;;0.60;;
31210;SDS011;17836;50.948;3.946;2023-07-29T15:08:28;1.23;;;0.50;;
31210;SDS011;17836;50.948;3.946;2023-07-29T15:10:53;0.63;;;0.43;;
31210;SDS011;17836;50.948;3.946;2023-07-29T15:13:19;0.60;;;0.50;;
31210;SDS011;17836;50.948;3.946;2023-07-29T15:15:45;0.60;;;0.40;;
31210;SDS011;17836;50.948;3.946;2023-07-29T15:18:10;0.55;;;0.50;;
31210;SDS011;17836;50.948;3.946;2023-07-29T15:20:38;0.55;;;0.55;;
31210;SDS011;17836;50.948;3.946;2023-07-29T15:23:05;0.77;;;0.57;;
31210;SDS011;17836;50.948;3.946;2023-07-29T15:25:30;1.13;;;0.33;;
31210;SDS011;17836;50.948;3.946;2023-07-29T15:27:56;0.40;;;0.40;;
31210;SDS011;17836;50.948;3.946;2023-07-29T15:30:23;0.85;;;0.35;;
31210;SDS011;17836;50.948;3.946;2023-07-29T15:32:51;0.47;;;0.47;;
31210;SDS011;17836;50.948;3.946;2023-07-29T15:35:16;0.70;;;0.40;;
31210;SDS011;17836;50.948;3.946;2023-07-29T15:37:44;0.82;;;0.30;;
31210;SDS011;17836;50.948;3.946;2023-07-29T15:40:11;1.20;;;0.40;;
31210;SDS011;17836;50.948;3.946;2023-07-29T15:42:39;0.83;;;0.30;;